Time;durP1;ratioP1;P1;durP2;ratioP2;P2;SDS_P1;SDS_P2;PMS_P1;PMS_P2;Temp;Humidity;BMP_temperature;BMP_pressure;BME280_temperature;BME280_humidity;BME280_pressure;Samples;Min_cycle;Max_cycle;Signal;HPM_P1;HPM_P2
2022/05/01 00:00:26;;;;;;;32.75;19.88;;;;;;;9.12;100.00;99269.97;5015045;28;20029;-63
2022/05/01 00:02:51;;;;;;;33.60;19.42;;;;;;;9.14;100.00;99258.97;5019564;28;20037;-63
2022/05/01 00:05:17;;;;;;;31.98;19.75;;;;;;;9.13;100.00;99257.31;5022329;28;20025;-64
2022/05/01 00:07:42;;;;;;;30.13;18.00;;;;;;;9.12;100.00;99258.34;5025867;28;20022;-63
2022/05/01 00:10:09;;;;;;;31.85;19.08;;;;;;;9.12;100.00;99255.66;5026520;28;20109;-63
2022/05/01 00:12:35;;;;;;;35.95;19.90;;;;;;;9.08;100.00;99255.16;5026421;28;20099;-62
2022/05/01 00:15:01;;;;;;;32.50;19.80;;;;;;;8.97;100.00;99242.94;5016219;28;20131;-63
2022/05/01 00:17:26;;;;;;;30.02;18.92;;;;;;;9.10;100.00;99260.38;5029339;28;20526;-63
2022/05/01 00:19:52;;;;;;;31.33;18.05;;;;;;;9.09;100.00;99256.00;5025521;28;20025;-62
2022/05/01 00:22:17;;;;;;;30.95;18.42;;;;;;;9.12;100.00;99256.47;5022827;28;20058;-63
2022/05/01 00:24:42;;;;;;;31.90;19.15;;;;;;;9.11;100.00;99260.19;5023749;28;20025;-63
2022/05/01 00:27:08;;;;;;;36.47;19.00;;;;;;;9.11;100.00;99256.66;5027279;28;20108;-63
2022/05/01 00:29:34;;;;;;;32.45;18.52;;;;;;;9.01;100.00;99243.41;5030277;28;20108;-62
2022/05/01 00:32:00;;;;;;;32.42;19.00;;;;;;;9.13;100.00;99255.44;5013900;28;20480;-63
2022/05/01 00:37:09;;;;;;;36.17;19.85;;;;;;;9.09;100.00;99229.00;5026885;28;20059;-63
2022/05/01 00:39:34;;;;;;;35.45;19.13;;;;;;;9.16;100.00;99238.06;5023225;28;20065;-63
2022/05/01 00:42:00;;;;;;;33.45;19.08;;;;;;;9.19;100.00;99243.91;5024086;28;20025;-63
2022/05/01 00:44:25;;;;;;;34.28;20.17;;;;;;;9.03;100.00;99224.34;5025754;28;20490;-62
2022/05/01 00:46:52;;;;;;;30.90;19.45;;;;;;;9.14;100.00;99246.34;5018577;28;20030;-63
2022/05/01 00:49:23;;;;;;;35.22;19.77;;;;;;;9.13;100.00;99254.63;5019921;28;20029;-63
2022/05/01 00:51:52;;;;;;;34.08;20.23;;;;;;;9.10;100.00;99246.91;5028741;28;20045;-62
2022/05/01 00:54:21;;;;;;;35.60;20.48;;;;;;;9.25;100.00;99247.75;5024187;28;20490;-64
2022/05/01 00:56:51;;;;;;;33.53;18.98;;;;;;;9.20;100.00;99252.88;5025620;28;20033;-62
2022/05/01 00:59:18;;;;;;;30.73;19.38;;;;;;;9.10;100.00;99250.44;5033703;28;20049;-63
2022/05/01 01:01:45;;;;;;;34.05;20.13;;;;;;;9.10;100.00;99245.03;5017165;28;20041;-62
2022/05/01 01:04:11;;;;;;;32.95;19.73;;;;;;;9.06;100.00;99253.66;5033068;28;20032;-63
2022/05/01 01:06:37;;;;;;;37.97;20.30;;;;;;;9.12;100.00;99258.34;5024737;28;20018;-62
2022/05/01 01:09:03;;;;;;;40.05;21.40;;;;;;;9.10;100.00;99257.69;5031266;28;20424;-63
2022/05/01 01:11:29;;;;;;;40.25;20.30;;;;;;;9.06;100.00;99246.41;5022987;28;20028;-62
2022/05/01 01:13:55;;;;;;;41.88;22.05;;;;;;;9.10;100.00;99258.53;5022846;28;20022;-63
2022/05/01 01:16:21;;;;;;;36.72;20.30;;;;;;;9.06;100.00;99254.50;5024256;28;20022;-63
2022/05/01 01:18:47;;;;;;;35.55;20.95;;;;;;;9.05;100.00;99252.84;5025971;28;20395;-63
2022/05/01 01:21:13;;;;;;;40.33;22.38;;;;;;;9.00;100.00;99245.28;5032705;28;20032;-63
2022/05/01 01:23:39;;;;;;;39.53;23.92;;;;;;;9.00;100.00;99252.53;5031136;28;20104;-62
2022/05/01 01:26:06;;;;;;;40.95;22.35;;;;;;;8.99;100.00;99243.59;5025094;28;20071;-63
2022/05/01 01:28:37;;;;;;;46.70;22.15;;;;;;;9.02;100.00;99249.66;5019819;28;20075;-63
2022/05/01 01:33:53;;;;;;;39.47;20.83;;;;;;;9.03;100.00;99237.84;5017346;28;20036;-63
2022/05/01 01:36:23;;;;;;;43.70;22.85;;;;;;;9.08;100.00;99243.53;5013010;28;20029;-63
2022/05/01 01:38:49;;;;;;;38.22;21.85;;;;;;;9.06;100.00;99240.16;5024228;28;20021;-62
2022/05/01 01:41:21;;;;;;;38.33;22.73;;;;;;;8.97;100.00;99225.91;5021233;28;20067;-62
2022/05/01 01:43:48;;;;;;;41.17;20.83;;;;;;;9.00;100.00;99228.25;5029162;28;20407;-62
2022/05/01 01:46:14;;;;;;;35.70;21.05;;;;;;;8.95;100.00;99231.50;5023953;28;20040;-62
2022/05/01 01:48:39;;;;;;;36.20;22.05;;;;;;;8.91;100.00;99232.88;5025753;28;20112;-63
2022/05/01 01:51:06;;;;;;;45.80;23.13;;;;;;;8.88;100.00;99233.25;5026925;28;20033;-62
2022/05/01 01:53:34;;;;;;;43.97;23.35;;;;;;;8.89;100.00;99226.81;5024819;28;20980;-63
2022/05/01 01:56:01;;;;;;;40.05;22.58;;;;;;;8.86;100.00;99235.28;5017664;28;20032;-62
2022/05/01 01:58:27;;;;;;;38.88;22.20;;;;;;;8.84;100.00;99223.84;5022350;28;20133;-63
2022/05/01 02:00:53;;;;;;;43.83;22.85;;;;;;;8.85;100.00;99233.59;5020790;28;20056;-62
2022/05/01 02:03:18;;;;;;;36.97;21.38;;;;;;;8.90;100.00;99227.66;5026986;28;20100;-64
2022/05/01 02:05:44;;;;;;;41.72;22.80;;;;;;;8.90;100.00;99230.38;5024234;28;20068;-64
2022/05/01 02:08:10;;;;;;;45.83;22.90;;;;;;;8.74;100.00;99204.38;5017004;28;20029;-63
2022/05/01 02:10:36;;;;;;;35.28;22.05;;;;;;;8.92;100.00;99225.63;5042560;28;20029;-63
2022/05/01 02:13:03;;;;;;;36.50;21.23;;;;;;;8.96;100.00;99224.22;5025013;28;20029;-62
2022/05/01 02:15:32;;;;;;;38.67;20.75;;;;;;;9.00;100.00;99226.38;5015676;28;20104;-64
2022/05/01 02:17:58;;;;;;;;;;;;;;;9.03;100.00;99229.75;5024797;28;20530;-64
2022/05/01 02:20:25;;;;;;;36.33;20.17;;;;;;;8.95;100.00;99227.97;5020026;28;19913;-64
2022/05/01 02:22:50;;;;;;;36.85;20.88;;;;;;;8.95;100.00;99217.16;5024592;28;20032;-63
2022/05/01 02:25:15;;;;;;;38.22;20.85;;;;;;;8.94;100.00;99219.03;5027544;28;20025;-63
2022/05/01 02:27:40;;;;;;;39.40;22.20;;;;;;;8.88;100.00;99211.69;5019087;28;20033;-64
2022/05/01 02:30:08;;;;;;;38.05;20.92;;;;;;;8.92;100.00;99215.66;5027008;28;20148;-64
2022/05/01 02:32:36;;;;;;;35.33;20.25;;;;;;;8.88;100.00;99217.06;5026678;28;20018;-64
2022/05/01 02:35:02;;;;;;;41.87;22.37;;;;;;;8.86;100.00;99219.09;5028547;28;20026;-64
2022/05/01 02:37:27;;;;;;;33.75;20.20;;;;;;;8.86;100.00;99213.72;5020525;28;20377;-63
2022/05/01 02:39:52;;;;;;;40.47;21.50;;;;;;;8.82;100.00;99212.38;5016720;28;20661;-64
2022/05/01 02:42:19;;;;;;;36.00;21.63;;;;;;;8.77;100.00;99212.91;5027826;28;20027;-64
2022/05/01 02:44:44;;;;;;;40.05;22.90;;;;;;;8.75;100.00;99206.03;5020332;28;20102;-63
2022/05/01 02:47:09;;;;;;;44.15;21.92;;;;;;;8.74;100.00;99198.97;5026507;28;20485;-63
2022/05/01 02:49:35;;;;;;;39.80;20.73;;;;;;;8.75;100.00;99204.19;5030055;28;20025;-64
2022/05/01 02:52:01;;;;;;;39.72;21.75;;;;;;;8.80;100.00;99203.63;5029273;28;20083;-64
2022/05/01 02:54:27;;;;;;;37.85;21.10;;;;;;;8.82;100.00;99208.84;5034289;28;20120;-64
2022/05/01 02:56:53;;;;;;;40.28;21.50;;;;;;;8.85;100.00;99209.31;5020414;28;20027;-64
2022/05/01 02:59:18;;;;;;;44.05;21.02;;;;;;;8.87;100.00;99204.56;5024750;28;21040;-64
2022/05/01 03:01:44;;;;;;;39.30;20.33;;;;;;;8.86;100.00;99205.63;5028469;28;20029;-64
2022/05/01 03:04:10;;;;;;;39.58;20.33;;;;;;;8.91;100.00;99202.38;5019818;28;20097;-63
2022/05/01 03:06:35;;;;;;;38.72;21.65;;;;;;;8.76;100.00;99175.34;5025936;28;20084;-63
2022/05/01 03:09:01;;;;;;;44.08;21.55;;;;;;;8.92;100.00;99195.94;5033967;28;20108;-63
2022/05/01 03:11:26;;;;;;;37.03;20.90;;;;;;;8.88;100.00;99190.09;5030771;28;20076;-63
2022/05/01 03:13:52;;;;;;;39.33;21.13;;;;;;;8.92;100.00;99195.94;5026356;28;20104;-63
2022/05/01 03:16:17;;;;;;;40.08;21.92;;;;;;;8.90;100.00;99201.50;5026474;28;20033;-63
2022/05/01 03:24:11;;;;;;;39.25;20.88;;;;;;;8.85;100.00;99189.59;5018490;28;20020;-64
2022/05/01 03:26:36;;;;;;;38.72;21.58;;;;;;;8.85;100.00;99185.03;5021520;28;20108;-64
2022/05/01 03:29:02;;;;;;;39.33;20.83;;;;;;;8.87;100.00;99191.09;5023835;28;20018;-64
2022/05/01 03:31:27;;;;;;;37.53;20.40;;;;;;;8.84;100.00;99180.66;5025219;28;20404;-64
2022/05/01 03:33:54;;;;;;;39.58;21.52;;;;;;;8.87;100.00;99187.56;5025133;28;20029;-63
2022/05/01 03:36:21;;;;;;;38.28;20.42;;;;;;;8.87;100.00;99180.28;5029516;28;20387;-63
2022/05/01 03:38:46;;;;;;;42.90;21.80;;;;;;;8.80;100.00;99176.66;5041126;28;20116;-63
2022/05/01 03:41:16;;;;;;;42.55;22.55;;;;;;;8.84;100.00;99180.66;5026068;28;20017;-63
2022/05/01 03:43:42;;;;;;;40.92;22.00;;;;;;;8.71;100.00;99161.56;5022636;28;20116;-63
2022/05/01 03:46:08;;;;;;;40.45;22.50;;;;;;;8.84;100.00;99190.63;5020624;28;20029;-64
2022/05/01 03:48:33;;;;;;;39.60;22.20;;;;;;;8.83;100.00;99181.69;5027696;28;20364;-63
2022/05/01 03:50:59;;;;;;;35.33;20.67;;;;;;;8.85;100.00;99178.81;5031566;28;20679;-63
2022/05/01 03:53:25;;;;;;;35.05;20.77;;;;;;;8.85;100.00;99185.03;5031798;28;20021;-63
2022/05/01 03:55:54;;;;;;;40.83;23.13;;;;;;;8.88;100.00;99182.00;5024347;28;20090;-63
2022/05/01 03:58:19;;;;;;;37.28;21.35;;;;;;;8.88;100.00;99189.22;5022206;28;20518;-63
2022/05/01 04:00:47;;;;;;;35.30;21.00;;;;;;;8.94;100.00;99188.50;5026867;28;20033;-63
2022/05/01 04:03:13;;;;;;;34.72;20.75;;;;;;;8.91;100.00;99196.97;5027579;28;20500;-65
2022/05/01 04:05:40;;;;;;;36.60;21.02;;;;;;;8.76;100.00;99175.34;5021485;28;20103;-63
2022/05/01 04:08:05;;;;;;;36.63;20.92;;;;;;;8.85;100.00;99190.44;5029477;28;20560;-63
2022/05/01 04:10:31;;;;;;;46.38;24.58;;;;;;;8.81;100.00;99197.22;5031082;28;20033;-63
2022/05/01 04:12:56;;;;;;;38.78;21.30;;;;;;;8.87;100.00;99203.75;5025142;28;20063;-63
2022/05/01 04:15:22;;;;;;;40.85;23.27;;;;;;;8.87;100.00;99199.19;5026161;28;20780;-63
2022/05/01 04:17:48;;;;;;;37.97;22.48;;;;;;;8.90;100.00;99192.59;5021384;28;20372;-63
2022/05/01 04:20:16;;;;;;;40.38;23.13;;;;;;;8.86;100.00;99202.91;5024664;28;20021;-63
2022/05/01 04:22:46;;;;;;;42.28;23.95;;;;;;;8.86;100.00;99197.53;5030561;28;20029;-63
2022/05/01 04:25:21;;;;;;;44.05;24.25;;;;;;;8.85;100.00;99187.72;5017532;28;20510;-63
2022/05/01 04:27:52;;;;;;;43.40;24.42;;;;;;;8.81;100.00;99183.75;5025761;28;20488;-63
2022/05/01 04:30:19;;;;;;;47.15;24.02;;;;;;;8.85;100.00;99193.13;5017928;28;20025;-63
2022/05/01 04:32:51;;;;;;;42.90;23.58;;;;;;;8.78;100.00;99197.59;5028946;28;20032;-63
2022/05/01 04:35:26;;;;;;;43.50;23.90;;;;;;;8.78;100.00;99197.59;5026571;28;20073;-63
2022/05/01 04:37:52;;;;;;;46.05;24.52;;;;;;;8.83;100.00;99202.41;5023854;28;20067;-63
2022/05/01 04:40:19;;;;;;;42.45;23.70;;;;;;;8.82;100.00;99207.00;5020901;28;20017;-63
2022/05/01 04:42:45;;;;;;;35.83;20.20;;;;;;;8.84;100.00;99204.94;5031969;28;20033;-63
2022/05/01 04:45:11;;;;;;;41.50;22.85;;;;;;;8.87;100.00;99201.88;5028098;28;20472;-63
2022/05/01 04:47:36;;;;;;;40.40;22.25;;;;;;;8.91;100.00;99200.50;5026830;28;20108;-63
2022/05/01 04:50:02;;;;;;;45.17;23.17;;;;;;;8.95;100.00;99203.66;5031101;28;20372;-63
2022/05/01 04:52:27;;;;;;;45.10;23.55;;;;;;;8.94;100.00;99200.13;5019655;28;20018;-63
2022/05/01 04:54:53;;;;;;;43.40;23.45;;;;;;;8.95;100.00;99200.97;5026417;28;20099;-63
2022/05/01 04:57:18;;;;;;;43.38;23.88;;;;;;;9.01;100.00;99200.22;5022227;28;20022;-64
2022/05/01 04:59:44;;;;;;;41.58;23.98;;;;;;;9.08;100.00;99211.16;5021749;28;20037;-63
2022/05/01 05:02:09;;;;;;;43.30;23.27;;;;;;;9.08;100.00;99205.75;5025690;28;20471;-63
2022/05/01 05:04:36;;;;;;;39.28;22.63;;;;;;;9.11;100.00;99210.78;5031682;28;20021;-63
2022/05/01 05:07:01;;;;;;;38.17;22.27;;;;;;;8.94;100.00;99177.72;5020393;28;20183;-63
2022/05/01 05:12:11;;;;;;;42.13;23.85;;;;;;;9.23;100.00;99214.69;5025035;28;20068;-63
2022/05/01 05:14:37;;;;;;;41.63;23.30;;;;;;;9.33;100.00;99215.28;5018830;28;20029;-63
2022/05/01 05:17:06;;;;;;;41.55;22.55;;;;;;;9.41;100.00;99217.06;5032162;28;20028;-63
2022/05/01 05:19:32;;;;;;;39.53;22.50;;;;;;;9.48;100.00;99223.38;5028783;28;20494;-63
2022/05/01 05:21:57;;;;;;;43.22;22.83;;;;;;;9.49;100.00;99216.97;5019375;28;20038;-64
2022/05/01 05:24:22;;;;;;;43.28;23.80;;;;;;;9.62;100.00;99219.00;5016310;28;20022;-63
2022/05/01 05:26:47;;;;;;;38.85;23.20;;;;;;;9.64;100.00;99219.63;5021346;28;20127;-63
2022/05/01 05:29:13;;;;;;;39.30;22.83;;;;;;;9.78;100.00;99224.22;5024269;28;20084;-63
2022/05/01 05:31:38;;;;;;;46.35;23.08;;;;;;;9.77;100.00;99219.84;5021599;28;20169;-63
2022/05/01 05:34:03;;;;;;;44.22;23.73;;;;;;;9.85;100.00;99227.84;5024240;28;20393;-63
2022/05/01 05:36:29;;;;;;;45.03;22.98;;;;;;;9.67;100.00;99192.25;5022669;28;20104;-64
2022/05/01 05:38:54;;;;;;;36.33;22.77;;;;;;;9.92;100.00;99236.00;5019157;28;20036;-63
2022/05/01 05:41:19;;;;;;;41.15;23.15;;;;;;;9.93;100.00;99231.44;5019029;28;20028;-68
2022/05/01 05:43:44;;;;;;;42.45;23.40;;;;;;;9.96;100.00;99241.91;5023049;28;20040;-69
2022/05/01 05:46:10;;;;;;;39.67;23.17;;;;;;;9.87;100.00;99206.00;5023129;28;20036;-68
2022/05/01 05:48:37;;;;;;;42.45;23.05;;;;;;;9.92;100.00;99218.97;5019488;28;20044;-68
2022/05/01 05:51:04;;;;;;;41.72;23.48;;;;;;;9.75;100.00;99224.59;5025079;28;20022;-69
2022/05/01 05:53:30;;;;;;;39.50;23.63;;;;;;;9.83;100.00;99232.59;5028795;28;20036;-72
2022/05/01 05:55:55;;;;;;;45.05;23.00;;;;;;;10.02;100.00;99206.81;5032525;28;20026;-68
2022/05/01 05:58:20;;;;;;;39.80;22.83;;;;;;;10.15;100.00;99214.25;5028585;28;20033;-68
2022/05/01 06:00:46;;;;;;;40.03;21.80;;;;;;;10.26;100.00;99188.56;5023795;28;20025;-70
2022/05/01 06:03:11;;;;;;;35.85;21.70;;;;;;;10.50;100.00;99217.16;5017879;28;20169;-71
2022/05/01 06:05:36;;;;;;;37.38;20.98;;;;;;;10.62;98.98;99202.09;5027229;28;20057;-71
2022/05/01 06:08:02;;;;;;;36.42;21.15;;;;;;;10.65;96.97;99212.53;5020550;28;20025;-70
2022/05/01 06:10:27;;;;;;;37.55;21.13;;;;;;;10.68;98.35;99230.25;5027206;28;20059;-71
2022/05/01 06:12:52;;;;;;;39.15;21.58;;;;;;;10.73;98.12;99239.44;5019328;28;20109;-71
2022/05/01 06:15:17;;;;;;;34.22;20.20;;;;;;;10.85;97.54;99206.47;5021262;28;20083;-72
2022/05/01 06:17:43;;;;;;;40.55;21.58;;;;;;;10.74;97.19;99191.56;5030143;28;20112;-71
2022/05/01 06:20:09;;;;;;;33.17;19.48;;;;;;;11.22;96.29;99232.38;5025251;28;20044;-67
2022/05/01 06:22:34;;;;;;;38.75;21.40;;;;;;;11.21;93.83;99230.69;5021147;28;20021;-68
2022/05/01 06:25:00;;;;;;;34.75;19.52;;;;;;;11.44;92.47;99235.84;5016828;28;20022;-70
2022/05/01 06:27:25;;;;;;;31.67;19.10;;;;;;;11.49;91.51;99232.56;5026044;28;20040;-67
2022/05/01 06:29:50;;;;;;;33.33;19.05;;;;;;;11.68;90.17;99234.53;5024763;28;20133;-63
2022/05/01 06:32:17;;;;;;;36.28;20.35;;;;;;;11.58;90.01;99221.38;5019987;28;20103;-68
2022/05/01 06:34:43;;;;;;;32.92;20.13;;;;;;;11.50;88.60;99217.94;5021882;28;20034;-69
2022/05/01 06:37:09;;;;;;;31.33;19.25;;;;;;;11.63;88.11;99218.03;5020610;28;20030;-69
2022/05/01 06:39:34;;;;;;;36.13;19.55;;;;;;;11.77;88.29;99208.13;5027303;28;20028;-70
2022/05/01 06:41:59;;;;;;;29.52;18.02;;;;;;;12.04;87.39;99233.50;5022595;28;20109;-69
2022/05/01 06:44:24;;;;;;;32.20;18.88;;;;;;;11.72;86.37;99206.00;5026666;28;20041;-69
2022/05/01 06:46:50;;;;;;;30.73;18.45;;;;;;;11.94;85.98;99208.63;5021077;28;20021;-71
2022/05/01 06:49:15;;;;;;;32.17;18.95;;;;;;;12.06;85.27;99212.44;5029149;28;20033;-70
2022/05/01 06:51:40;;;;;;;28.77;16.85;;;;;;;12.47;84.27;99233.22;5020604;28;20038;-71
2022/05/01 06:54:08;;;;;;;27.88;17.17;;;;;;;12.82;84.23;99238.50;5023212;28;20025;-67
2022/05/01 06:56:34;;;;;;;28.85;17.00;;;;;;;13.08;81.99;99233.09;5019332;28;20541;-67
2022/05/01 06:59:00;;;;;;;26.10;15.98;;;;;;;13.32;78.74;99238.97;5029361;28;20074;-66
2022/05/01 07:01:26;;;;;;;29.55;17.20;;;;;;;13.01;77.77;99215.13;5014943;28;20123;-67
2022/05/01 07:03:51;;;;;;;24.95;16.55;;;;;;;13.08;77.54;99243.13;5019996;28;20101;-67
2022/05/01 07:06:16;;;;;;;26.73;16.02;;;;;;;12.36;80.05;99207.50;5017894;28;20072;-67
2022/05/01 07:08:42;;;;;;;24.10;15.95;;;;;;;12.68;79.83;99243.06;5028186;28;20033;-67
2022/05/01 07:11:07;;;;;;;27.90;16.45;;;;;;;12.59;79.67;99252.47;5025980;28;20029;-67
2022/05/01 07:13:32;;;;;;;25.95;16.90;;;;;;;12.49;81.64;99240.09;5030426;28;20132;-67
2022/05/01 07:15:58;;;;;;;25.05;15.95;;;;;;;12.89;78.86;99245.63;5021973;28;20388;-66
2022/05/01 07:18:23;;;;;;;28.42;17.38;;;;;;;12.86;78.07;99250.63;5027278;28;20075;-66
2022/05/01 07:20:48;;;;;;;25.55;16.67;;;;;;;12.66;79.36;99250.59;5021213;28;20029;-67
2022/05/01 07:23:14;;;;;;;26.95;16.63;;;;;;;12.50;79.98;99247.22;5019213;28;20025;-67
2022/05/01 07:25:39;;;;;;;30.63;16.35;;;;;;;12.77;78.27;99244.56;5020046;28;20575;-67
2022/05/01 07:28:04;;;;;;;26.13;16.02;;;;;;;12.78;78.95;99239.97;5025567;28;20025;-67
2022/05/01 07:30:30;;;;;;;27.75;16.05;;;;;;;13.19;76.38;99247.91;5022205;28;20109;-68
2022/05/01 07:32:55;;;;;;;26.88;16.92;;;;;;;13.08;76.37;99241.25;5022373;28;20247;-69
2022/05/01 07:35:20;;;;;;;29.30;17.40;;;;;;;12.85;77.22;99233.50;5025667;28;20029;-70
2022/05/01 07:37:46;;;;;;;27.17;15.60;;;;;;;13.00;77.13;99235.19;5023529;28;20037;-70
2022/05/01 07:40:12;;;;;;;23.60;15.60;;;;;;;12.79;78.08;99234.34;5039081;28;20078;-68
2022/05/01 07:42:37;;;;;;;23.55;15.98;;;;;;;13.04;77.79;99225.56;5031736;28;20017;-69
2022/05/01 07:45:03;;;;;;;22.67;15.07;;;;;;;13.33;75.81;99225.16;5043709;28;20146;-69
2022/05/01 07:47:29;;;;;;;22.20;14.20;;;;;;;13.43;74.24;99230.16;5024798;28;20049;-69
2022/05/01 07:49:54;;;;;;;27.20;15.23;;;;;;;13.33;75.72;99227.88;5030575;28;20017;-69
2022/05/01 07:52:19;;;;;;;23.13;14.95;;;;;;;13.35;74.58;99216.81;5025302;28;20038;-68
2022/05/01 07:54:44;;;;;;;30.98;15.75;;;;;;;13.32;75.49;99242.50;5023700;28;20044;-69
2022/05/01 07:57:10;;;;;;;24.88;15.70;;;;;;;13.36;74.44;99243.78;5034676;28;20021;-67
2022/05/01 07:59:35;;;;;;;26.73;16.15;;;;;;;13.12;75.05;99230.78;5019822;28;20546;-68
2022/05/01 08:02:01;;;;;;;25.75;15.50;;;;;;;13.23;76.36;99243.75;5026108;28;20387;-67
2022/05/01 08:04:29;;;;;;;23.92;14.70;;;;;;;13.51;75.29;99223.66;5045312;28;20430;-68
2022/05/01 08:07:01;;;;;;;24.13;14.38;;;;;;;14.09;73.80;99237.28;5025252;28;20033;-69
2022/05/01 08:09:28;;;;;;;26.02;15.88;;;;;;;13.87;72.07;99230.50;5023354;28;20113;-66
2022/05/01 08:11:54;;;;;;;24.42;14.98;;;;;;;14.42;71.26;99247.22;5025121;28;20092;-66
2022/05/01 08:14:21;;;;;;;28.80;16.02;;;;;;;14.62;69.41;99228.91;5025187;28;20049;-71
2022/05/01 08:16:47;;;;;;;27.10;16.15;;;;;;;14.25;70.78;99236.84;5042133;28;20040;-68
2022/05/01 08:21:56;;;;;;;25.15;16.35;;;;;;;13.72;72.61;99222.56;5023522;28;20067;-68
2022/05/01 08:24:21;;;;;;;25.73;16.55;;;;;;;14.10;71.58;99235.44;5032054;28;20495;-66
2022/05/01 08:26:48;;;;;;;26.17;15.23;;;;;;;14.50;69.88;99233.34;5027906;28;20108;-63
2022/05/01 08:29:14;;;;;;;26.45;15.90;;;;;;;14.55;69.21;99240.88;5024991;28;20507;-64
2022/05/01 08:31:40;;;;;;;24.10;14.82;;;;;;;14.71;67.37;99231.38;5023635;28;20026;-65
2022/05/01 08:34:07;;;;;;;23.90;15.05;;;;;;;15.00;67.02;99227.16;5020037;28;20029;-68
2022/05/01 08:36:33;;;;;;;20.20;14.25;;;;;;;15.18;67.84;99232.69;5019172;28;20064;-65
2022/05/01 08:38:58;;;;;;;19.33;13.80;;;;;;;15.23;67.34;99229.28;5015709;28;20060;-66
2022/05/01 08:41:26;;;;;;;25.50;14.15;;;;;;;15.28;67.17;99222.09;5018660;28;20077;-64
2022/05/01 08:43:54;;;;;;;22.40;15.27;;;;;;;15.53;66.63;99232.13;5022560;28;20515;-64
2022/05/01 08:46:49;;;;;;;21.55;15.30;;;;;;;15.17;67.42;99224.72;5020868;28;20471;-69
2022/05/01 08:49:17;;;;;;;23.45;14.65;;;;;;;15.19;68.35;99222.59;5020394;28;20076;-63
2022/05/01 08:51:43;;;;;;;33.10;15.55;;;;;;;15.07;66.68;99230.69;5023832;28;20026;-64
2022/05/01 08:54:11;;;;;;;24.17;15.55;;;;;;;15.01;66.47;99226.09;5029333;28;20091;-63
2022/05/01 08:56:38;;;;;;;20.17;14.35;;;;;;;14.96;66.80;99234.97;5017610;28;20040;-63
2022/05/01 08:59:06;;;;;;;21.48;14.82;;;;;;;15.48;65.62;99231.97;5023332;28;20052;-63
2022/05/01 09:01:33;;;;;;;20.67;13.40;;;;;;;15.97;62.87;99222.03;5023741;28;20021;-64
2022/05/01 09:03:58;;;;;;;18.08;11.82;;;;;;;16.56;61.43;99228.63;5024693;28;20029;-64
2022/05/01 09:06:24;;;;;;;19.00;13.80;;;;;;;15.70;62.31;99225.09;5025414;28;20021;-64
2022/05/01 09:08:51;;;;;;;23.15;12.80;;;;;;;16.51;60.64;99230.41;5017741;28;20708;-63
2022/05/01 09:14:02;;;;;;;21.67;13.55;;;;;;;17.18;59.01;99216.56;5023203;28;20125;-63
2022/05/01 09:16:27;;;;;;;23.73;15.18;;;;;;;17.27;57.43;99228.81;5016707;28;20026;-63
2022/05/01 09:18:53;;;;;;;19.70;13.48;;;;;;;17.57;57.58;99211.47;5016052;28;20037;-64
2022/05/01 09:21:18;;;;;;;20.35;13.45;;;;;;;18.07;55.17;99195.31;5035242;28;20017;-64
2022/05/01 09:23:45;;;;;;;21.88;13.73;;;;;;;17.48;56.82;99222.75;5023393;28;20032;-63
2022/05/01 09:26:14;;;;;;;19.80;13.77;;;;;;;17.81;56.41;99218.59;5026764;28;20021;-62
2022/05/01 09:28:51;;;;;;;19.67;12.57;;;;;;;18.15;54.72;99192.19;5027273;28;20047;-63
2022/05/01 09:31:17;;;;;;;18.13;13.52;;;;;;;17.79;56.01;99197.97;5024280;28;20088;-63
2022/05/01 09:33:43;;;;;;;20.98;14.32;;;;;;;17.44;55.43;99220.75;5027222;28;20438;-64
2022/05/01 09:36:35;;;;;;;19.20;12.55;;;;;;;17.13;56.26;99224.63;5025919;28;20029;-65
2022/05/01 09:39:02;;;;;;;19.73;12.90;;;;;;;16.88;59.05;99224.84;5019348;28;20026;-65
2022/05/01 09:41:28;;;;;;;20.42;13.40;;;;;;;16.04;59.22;99219.25;5012757;28;20030;-63
2022/05/01 09:43:53;;;;;;;20.33;12.98;;;;;;;15.69;60.47;99219.84;5018234;28;20031;-65
2022/05/01 09:46:25;;;;;;;19.27;12.63;;;;;;;15.85;60.97;99216.53;5025285;28;20129;-65
2022/05/01 09:48:59;;;;;;;16.67;12.02;;;;;;;15.97;60.85;99217.41;5024657;28;20075;-63
2022/05/01 09:51:25;;;;;;;21.55;13.07;;;;;;;15.93;61.41;99218.13;5024779;28;20033;-64
2022/05/01 09:53:51;;;;;;;15.68;11.57;;;;;;;15.95;61.43;99219.53;5027381;28;20129;-65
2022/05/01 09:56:16;;;;;;;19.63;13.35;;;;;;;15.58;60.89;99205.03;5029455;28;20116;-65
2022/05/01 09:58:43;;;;;;;20.58;13.07;;;;;;;15.16;62.67;99212.97;5036710;28;20631;-65
2022/05/01 10:01:11;;;;;;;15.98;12.32;;;;;;;15.66;61.39;99223.00;5020172;28;20018;-64
2022/05/01 10:03:39;;;;;;;17.35;12.13;;;;;;;15.36;62.05;99223.72;5020762;28;20072;-64
2022/05/01 10:06:09;;;;;;;20.67;13.00;;;;;;;15.50;60.47;99194.41;5022821;28;20021;-65
2022/05/01 10:08:37;;;;;;;20.20;13.10;;;;;;;15.50;60.42;99214.34;5023312;28;20273;-65
2022/05/01 10:11:04;;;;;;;20.65;12.55;;;;;;;15.84;58.80;99197.66;5018337;28;20407;-64
2022/05/01 10:13:30;;;;;;;18.42;12.68;;;;;;;16.18;58.23;99212.56;5015556;28;20476;-65
2022/05/01 10:15:55;;;;;;;20.10;13.30;;;;;;;16.10;59.24;99210.97;5026288;28;20017;-64
2022/05/01 10:18:22;;;;;;;22.20;13.40;;;;;;;16.56;57.83;99212.25;5022219;28;20037;-64
2022/05/01 10:20:48;;;;;;;18.80;11.90;;;;;;;16.70;58.06;99188.28;5020311;28;20087;-64
2022/05/01 10:23:14;;;;;;;19.38;12.27;;;;;;;17.26;55.85;99199.78;5014645;28;20629;-64
2022/05/01 10:25:47;;;;;;;21.98;12.80;;;;;;;17.33;55.84;99205.16;5020486;28;20041;-64
2022/05/01 10:28:17;;;;;;;16.42;12.32;;;;;;;17.14;55.56;99188.03;5019573;28;20029;-64
2022/05/01 10:34:40;;;;;;;16.48;11.27;;;;;;;16.66;56.03;99189.81;4986338;28;20392;-64
2022/05/01 10:37:23;;;;;;;16.35;10.70;;;;;;;16.84;55.14;99173.38;5026198;28;20017;-64
2022/05/01 10:39:49;;;;;;;14.70;10.52;;;;;;;17.35;54.36;99203.84;5021789;28;20057;-64
2022/05/01 10:42:34;;;;;;;16.20;11.13;;;;;;;17.58;55.09;99188.50;5021724;28;20030;-62
2022/05/01 10:45:19;;;;;;;16.58;9.77;;;;;;;18.02;53.68;99192.47;5019289;28;20030;-63
2022/05/01 10:47:47;;;;;;;14.45;9.70;;;;;;;17.82;53.00;99179.22;5008869;28;20073;-63
2022/05/01 10:50:20;;;;;;;14.05;9.80;;;;;;;18.07;50.80;99191.75;5018523;28;20115;-63
2022/05/01 10:53:03;;;;;;;13.15;9.23;;;;;;;18.40;49.44;99186.41;5028562;28;20104;-63
2022/05/01 10:55:44;;;;;;;18.27;10.70;;;;;;;18.94;48.87;99190.66;5021010;28;20053;-62
2022/05/01 10:58:20;;;;;;;15.88;10.68;;;;;;;19.29;49.68;99159.41;5025847;28;20017;-63
2022/05/01 11:00:47;;;;;;;13.63;10.13;;;;;;;19.88;48.87;99179.75;5025839;28;20724;-64
2022/05/01 11:03:23;;;;;;;16.38;10.68;;;;;;;21.18;46.80;99165.13;5010258;28;20033;-63
2022/05/01 11:05:52;;;;;;;14.60;9.57;;;;;;;22.76;44.53;99159.50;5021566;28;20356;-63
2022/05/01 11:08:27;;;;;;;17.10;11.00;;;;;;;21.75;43.16;99160.03;5011733;28;20740;-62
2022/05/01 11:10:57;;;;;;;14.95;10.25;;;;;;;21.84;45.43;99170.25;5018317;28;20395;-62
2022/05/01 11:13:33;;;;;;;14.90;10.32;;;;;;;21.27;45.90;99165.47;5019003;28;20155;-63
2022/05/01 11:15:59;;;;;;;18.13;12.10;;;;;;;20.71;44.59;99162.28;5025401;28;20025;-63
2022/05/01 11:18:40;;;;;;;13.68;9.80;;;;;;;20.58;46.61;99171.78;5016564;28;20113;-63
2022/05/01 11:21:30;;;;;;;14.23;10.95;;;;;;;20.85;46.68;99169.00;5037573;28;20040;-63
2022/05/01 11:24:00;;;;;;;13.65;9.90;;;;;;;21.43;46.30;99167.28;5022774;28;20062;-64
2022/05/01 11:26:26;;;;;;;15.70;11.27;;;;;;;22.02;44.80;99163.44;5015737;28;20036;-63
2022/05/01 11:29:13;;;;;;;15.88;10.68;;;;;;;22.08;43.61;99161.53;5017147;28;20434;-63
2022/05/01 11:31:39;;;;;;;15.00;11.32;;;;;;;21.01;44.23;99168.06;5014755;28;20030;-63
2022/05/01 11:34:35;;;;;;;14.75;9.15;;;;;;;21.50;45.68;99163.44;5029507;28;20034;-63
2022/05/01 11:37:05;;;;;;;16.45;11.25;;;;;;;20.72;46.49;99159.28;5002350;28;20044;-62
2022/05/01 11:39:45;;;;;;;12.77;10.00;;;;;;;20.10;48.39;99165.19;5019652;28;20025;-63